Time;durP1;ratioP1;P1;durP2;ratioP2;P2;SDS_P1;SDS_P2;PMS_P1;PMS_P2;Temp;Humidity;BMP_temperature;BMP_pressure;BME280_temperature;BME280_humidity;BME280_pressure;Samples;Min_cycle;Max_cycle;Signal;HPM_P1;HPM_P2
2021/06/15 00:02:19;;;;;;;;;7.67;7.67;;;;;25.09;45.11;101568.06;5076583;28;47424;-89
2021/06/15 00:04:45;;;;;;;;;8.67;8.67;;;;;25.09;45.19;101562.69;5077691;27;45384;-88
2021/06/15 00:07:10;;;;;;;;;9.33;9.00;;;;;25.19;45.71;101583.94;5078465;27;45276;-89
2021/06/15 00:09:36;;;;;;;;;8.50;7.50;;;;;25.13;45.62;101571.53;5078670;27;45389;-88
2021/06/15 00:12:03;;;;;;;;;8.67;8.00;;;;;25.05;45.08;101570.88;5081579;28;45378;-89
2021/06/15 00:14:29;;;;;;;;;8.33;8.00;;;;;25.08;45.39;101574.38;5076977;28;45489;-88
2021/06/15 00:16:54;;;;;;;;;7.33;7.00;;;;;25.05;45.14;101576.28;5078078;27;45335;-90
2021/06/15 00:19:20;;;;;;;;;9.33;8.33;;;;;24.99;45.30;101558.53;5077725;27;45247;-89
2021/06/15 00:21:46;;;;;;;;;9.00;8.33;;;;;25.00;45.39;101562.09;5077758;27;45397;-89
2021/06/15 00:24:11;;;;;;;;;10.33;10.33;;;;;24.97;45.92;101563.94;5077538;27;45316;-90
2021/06/15 00:26:36;;;;;;;;;10.33;10.00;;;;;24.97;45.75;101568.44;5076298;28;45350;-89
2021/06/15 00:29:02;;;;;;;;;10.00;9.33;;;;;24.94;46.32;101560.41;5076523;28;45354;-89
2021/06/15 00:31:28;;;;;;;;;9.33;9.00;;;;;24.95;46.39;101575.66;5075890;28;46777;-89
2021/06/15 00:33:54;;;;;;;;;14.00;12.00;;;;;24.87;46.58;101570.50;5077820;28;45416;-88
2021/06/15 00:36:19;;;;;;;;;12.00;10.67;;;;;24.88;47.08;101569.56;5076231;28;45380;-88
2021/06/15 00:38:45;;;;;;;;;9.33;9.33;;;;;24.79;47.09;101559.94;5077420;27;45443;-88
2021/06/15 00:41:10;;;;;;;;;10.00;10.00;;;;;24.89;47.57;101581.19;5077325;27;45992;-89
2021/06/15 00:43:35;;;;;;;;;13.33;10.00;;;;;24.74;47.34;101562.81;5076147;28;45398;-87
2021/06/15 00:46:01;;;;;;;;;10.33;10.33;;;;;24.80;47.15;101575.19;5082556;27;45425;-89
2021/06/15 00:48:31;;;;;;;;;11.00;9.33;;;;;24.72;46.71;101566.47;5079900;27;45421;-88
2021/06/15 00:50:58;;;;;;;;;10.67;9.00;;;;;24.73;47.64;101581.66;5077138;28;46239;-88
2021/06/15 00:53:24;;;;;;;;;8.67;8.00;;;;;24.70;47.62;101571.00;5076837;27;45314;-89
2021/06/15 00:55:52;;;;;;;;;10.00;10.00;;;;;24.74;47.11;101583.41;5075598;28;45365;-89
2021/06/15 00:58:18;;;;;;;;;8.67;8.67;;;;;24.62;47.09;101568.53;5075897;27;45552;-89
2021/06/15 01:00:43;;;;;;;;;9.33;9.33;;;;;24.56;47.42;101558.81;5076813;27;45446;-89
2021/06/15 01:03:11;;;;;;;;;10.33;10.33;;;;;24.57;47.83;101563.28;5078766;27;45435;-88
2021/06/15 01:05:37;;;;;;;;;9.33;9.33;;;;;24.53;47.80;101561.63;5080297;27;45488;-88
2021/06/15 01:08:45;;;;;;;;;9.33;9.33;;;;;24.52;47.71;101567.91;5080027;27;45188;-89
2021/06/15 01:11:17;;;;;;;;;10.00;10.00;;;;;24.55;47.76;101578.56;5063473;28;46498;-89
2021/06/15 01:13:56;;;;;;;;;10.33;9.00;;;;;24.52;48.02;101579.53;5075510;27;45460;-89
2021/06/15 01:16:35;;;;;;;;;10.00;10.00;;;;;24.51;48.03;101577.75;5077100;28;45275;-88
2021/06/15 01:19:40;;;;;;;;;8.33;8.00;;;;;24.48;47.22;101582.34;5075826;28;45490;-89
2021/06/15 01:22:43;;;;;;;;;10.00;8.33;;;;;24.43;47.89;101579.78;5077279;28;45929;-89
2021/06/15 01:25:27;;;;;;;;;10.00;8.33;;;;;24.43;48.28;101584.28;5075105;28;45394;-90
2021/06/15 01:28:02;;;;;;;;;13.00;11.00;;;;;24.42;47.45;101585.19;5075210;28;45469;-88
2021/06/15 01:30:49;;;;;;;;;11.33;11.00;;;;;24.32;48.01;101577.41;5075898;27;45425;-89
2021/06/15 01:33:18;;;;;;;;;11.67;10.33;;;;;24.29;48.29;101580.16;5078242;28;47259;-88
2021/06/15 01:35:45;;;;;;;;;12.00;9.00;;;;;24.22;48.05;101571.38;5080662;28;45393;-89
2021/06/15 01:38:14;;;;;;;;;9.33;9.00;;;;;24.23;48.62;101570.47;5079576;27;45383;-89
2021/06/15 01:40:57;;;;;;;;;10.00;9.33;;;;;24.25;48.45;101575.81;5079452;27;45461;-89
2021/06/15 01:43:30;;;;;;;;;9.33;9.33;;;;;24.28;48.57;101575.72;5078676;27;47355;-88
2021/06/15 01:45:58;;;;;;;;;12.00;9.00;;;;;24.10;48.61;101555.56;5078055;27;45936;-89
2021/06/15 01:49:02;;;;;;;;;12.33;11.67;;;;;24.20;48.57;101578.56;5080202;27;45374;-89
2021/06/15 01:51:30;;;;;;;;;11.00;11.00;;;;;24.13;49.04;101572.50;5080278;27;45523;-89
2021/06/15 01:53:59;;;;;;;;;11.00;11.00;;;;;24.12;49.35;101577.91;5079843;27;45483;-89
2021/06/15 01:56:27;;;;;;;;;13.00;10.00;;;;;23.98;49.16;101559.47;5078261;27;45490;-89
2021/06/15 01:58:56;;;;;;;;;11.33;11.00;;;;;23.98;48.98;101568.41;5078401;28;45407;-88
2021/06/15 02:01:22;;;;;;;;;11.33;9.67;;;;;23.96;49.59;101566.69;5080190;27;45353;-88
2021/06/15 02:03:52;;;;;;;;;10.00;10.00;;;;;23.87;49.57;101568.69;5078031;27;47935;-89
2021/06/15 02:06:22;;;;;;;;;13.67;9.33;;;;;23.84;49.71;101566.06;5079606;27;45524;-91
2021/06/15 02:08:50;;;;;;;;;12.00;10.00;;;;;23.85;49.68;101578.59;5079925;27;45381;-90
2021/06/15 02:11:18;;;;;;;;;10.67;8.00;;;;;23.79;49.78;101570.69;5078451;28;45428;-88
2021/06/15 02:13:46;;;;;;;;;10.33;10.33;;;;;23.78;49.96;101582.31;5079477;27;45527;-89
2021/06/15 02:16:13;;;;;;;;;13.33;11.00;;;;;23.70;49.91;101570.00;5079554;27;45337;-89
2021/06/15 02:18:41;;;;;;;;;12.00;11.00;;;;;23.67;50.09;101574.56;5078682;27;45661;-88
2021/06/15 02:21:10;;;;;;;;;11.00;9.00;;;;;23.62;50.13;101582.72;5080219;27;45421;-89
2021/06/15 02:23:37;;;;;;;;;9.33;9.33;;;;;23.48;50.03;101570.50;5078479;28;47132;-89
2021/06/15 02:26:13;;;;;;;;;12.00;12.00;;;;;23.58;50.10;101592.63;5080094;27;45490;-91
2021/06/15 02:28:39;;;;;;;;;10.00;9.00;;;;;23.46;50.29;101583.06;5079038;28;45355;-89
2021/06/15 02:31:09;;;;;;;;;12.67;10.33;;;;;23.50;50.52;101589.25;5082208;27;45416;-88
2021/06/15 02:33:41;;;;;;;;;11.00;9.33;;;;;23.40;50.42;101593.91;5086836;27;45635;-90
2021/06/15 02:36:19;;;;;;;;;12.00;11.33;;;;;23.33;50.57;101587.81;5090462;27;45297;-89
2021/06/15 02:39:16;;;;;;;;;12.33;10.33;;;;;23.17;50.98;101565.81;5083035;27;45273;-90
2021/06/15 02:41:43;;;;;;;;;13.33;12.00;;;;;23.18;50.99;101578.28;5080146;27;45267;-89
2021/06/15 02:44:12;;;;;;;;;13.67;10.00;;;;;23.23;50.72;101592.50;5079241;27;45432;-91
2021/06/15 02:46:40;;;;;;;;;11.33;11.33;;;;;23.06;51.16;101571.41;5077873;28;45984;-90
2021/06/15 02:49:10;;;;;;;;;11.67;11.67;;;;;23.02;51.08;101581.34;5078439;27;45527;-90
2021/06/15 02:51:42;;;;;;;;;10.00;9.67;;;;;23.04;50.88;101592.00;5078317;28;45465;-90
2021/06/15 02:54:13;;;;;;;;;12.00;11.33;;;;;22.98;51.19;101586.78;5079074;27;46255;-89
2021/06/15 02:56:43;;;;;;;;;11.00;10.00;;;;;22.90;51.12;101581.59;5079513;27;45432;-88
2021/06/15 02:59:09;;;;;;;;;11.33;11.33;;;;;22.87;51.21;101587.00;5079134;28;45437;-88
2021/06/15 03:01:34;;;;;;;;;10.33;10.33;;;;;22.84;51.21;101587.09;5079299;27;45144;-89
2021/06/15 03:04:02;;;;;;;;;12.00;9.33;;;;;22.80;51.24;101580.91;5079499;28;45366;-90
2021/06/15 03:06:27;;;;;;;;;9.67;9.33;;;;;22.67;51.02;101573.09;5077963;27;45387;-88
2021/06/15 03:08:53;;;;;;;;;12.33;10.67;;;;;22.71;50.77;101587.34;5077865;27;45323;-90
2021/06/15 03:11:22;;;;;;;;;13.33;10.33;;;;;22.72;51.01;101596.25;5077878;28;45358;-90
2021/06/15 03:14:13;;;;;;;;;14.00;12.00;;;;;22.66;50.86;101589.22;5079011;27;45348;-90
2021/06/15 03:16:39;;;;;;;;;9.00;9.00;;;;;22.53;51.07;101575.13;5077491;27;45834;-92
2021/06/15 03:19:09;;;;;;;;;12.33;11.67;;;;;22.55;51.04;101595.63;5077823;28;45425;-90
2021/06/15 03:21:48;;;;;;;;;11.00;11.00;;;;;22.47;51.11;101586.88;5079721;27;45213;-90
2021/06/15 03:24:21;;;;;;;;;11.33;11.00;;;;;22.40;50.85;101577.19;5079491;27;45305;-88
2021/06/15 03:27:06;;;;;;;;;14.00;10.00;;;;;22.41;50.97;101589.66;5077477;27;45817;-90
2021/06/15 03:29:36;;;;;;;;;13.33;9.33;;;;;22.23;51.35;101567.66;5079135;27;45307;-91
2021/06/15 03:32:28;;;;;;;;;12.00;9.33;;;;;22.23;51.42;101581.03;5079653;27;45348;-91
2021/06/15 03:34:55;;;;;;;;;11.33;11.00;;;;;22.24;51.96;101579.25;5077980;27;45673;-92
2021/06/15 03:37:28;;;;;;;;;10.00;10.00;;;;;22.26;51.49;101588.16;5079529;27;45251;-89
2021/06/15 03:39:57;;;;;;;;;12.00;12.00;;;;;22.22;51.52;101587.31;5078988;28;45299;-90
2021/06/15 03:42:29;;;;;;;;;14.00;11.67;;;;;22.20;51.62;101594.50;5079488;27;45289;-93
2021/06/15 03:44:59;;;;;;;;;11.33;10.00;;;;;22.10;51.96;101583.94;5077696;28;47351;-92
2021/06/15 03:47:27;;;;;;;;;10.67;9.33;;;;;22.05;51.73;101577.81;5079062;27;45511;-92
2021/06/15 03:49:54;;;;;;;;;10.00;10.00;;;;;22.08;51.52;101579.56;5079066;27;45408;-90
2021/06/15 03:52:22;;;;;;;;;13.00;10.33;;;;;22.02;51.45;101574.31;5079015;27;45370;-91
2021/06/15 03:54:49;;;;;;;;;8.67;8.67;;;;;22.00;51.86;101571.63;5077013;27;47339;-92
2021/06/15 03:57:16;;;;;;;;;10.00;8.67;;;;;22.05;51.71;101580.47;5078853;27;45330;-91
2021/06/15 03:59:44;;;;;;;;;10.33;10.33;;;;;22.02;51.79;101580.53;5077676;28;45428;-91
2021/06/15 04:02:10;;;;;;;;;9.33;9.33;;;;;21.93;51.62;101565.53;5079814;27;45357;-93
2021/06/15 04:04:40;;;;;;;;;8.33;8.33;;;;;22.01;51.43;101580.56;5079081;27;46579;-91
2021/06/15 04:07:13;;;;;;;;;9.33;9.00;;;;;21.97;51.42;101575.28;5079105;27;45485;-91
2021/06/15 04:09:39;;;;;;;;;10.00;10.00;;;;;21.90;51.41;101575.38;5078058;28;45310;-89
2021/06/15 04:12:06;;;;;;;;;8.33;8.33;;;;;21.81;51.45;101569.22;5079391;27;45251;-90
2021/06/15 04:14:34;;;;;;;;;9.00;9.00;;;;;21.76;51.43;101557.75;5079019;28;45574;-91
2021/06/15 04:17:01;;;;;;;;;12.00;9.33;;;;;21.83;51.52;101570.13;5081489;27;45293;-92
2021/06/15 04:19:32;;;;;;;;;11.67;11.00;;;;;21.89;51.34;101589.69;5082762;27;45425;-92
2021/06/15 04:22:01;;;;;;;;;8.00;8.00;;;;;21.77;51.45;101578.22;5086259;27;45382;-89
2021/06/15 04:24:27;;;;;;;;;10.00;10.00;;;;;21.83;51.28;101594.22;5091218;27;45410;-91
2021/06/15 04:26:59;;;;;;;;;12.00;11.67;;;;;21.67;51.49;101566.78;5080381;27;45301;-91
2021/06/15 04:29:27;;;;;;;;;11.00;11.00;;;;;21.69;51.19;101577.47;5079425;27;45375;-90
2021/06/15 04:31:58;;;;;;;;;11.33;11.33;;;;;21.73;51.27;101597.91;5081003;27;45385;-90
2021/06/15 04:34:26;;;;;;;;;9.67;9.33;;;;;21.69;51.35;101582.81;5079129;28;46031;-91
2021/06/15 04:36:56;;;;;;;;;17.00;11.67;;;;;21.72;51.40;101597.03;5078787;28;45445;-90
2021/06/15 04:39:25;;;;;;;;;12.00;10.33;;;;;21.62;51.23;101587.38;5078202;27;45342;-90
2021/06/15 04:42:05;;;;;;;;;10.00;9.00;;;;;21.66;51.29;101596.25;5079140;28;45267;-92
2021/06/15 04:44:42;;;;;;;;;13.00;12.00;;;;;21.60;51.46;101599.88;5077592;28;45407;-88
2021/06/15 04:47:21;;;;;;;;;12.00;10.00;;;;;21.63;51.21;101608.78;5078236;27;45531;-87
2021/06/15 04:50:13;;;;;;;;;13.67;11.33;;;;;21.66;51.58;101615.00;5078473;27;45390;-89
2021/06/15 04:52:45;;;;;;;;;10.00;8.67;;;;;21.64;51.90;101615.88;5077117;28;45417;-87
2021/06/15 04:55:12;;;;;;;;;10.33;10.33;;;;;21.59;51.56;101606.16;5077673;28;47082;-88
2021/06/15 04:57:44;;;;;;;;;11.33;10.33;;;;;21.68;51.52;101629.22;5085821;28;45420;-87
2021/06/15 05:00:10;;;;;;;;;10.33;10.33;;;;;21.67;51.52;101625.66;5082060;28;45243;-86
2021/06/15 05:02:39;;;;;;;;;12.00;12.00;;;;;21.59;51.59;101611.50;5085991;28;45318;-87
2021/06/15 05:05:06;;;;;;;;;11.33;9.67;;;;;21.67;51.17;101627.44;5090354;27;45487;-86
2021/06/15 05:07:32;;;;;;;;;10.00;10.00;;;;;21.68;51.30;101626.56;5098820;27;45219;-87
2021/06/15 05:10:06;;;;;;;;;8.00;8.00;;;;;21.59;51.36;101615.09;5103985;27;45099;-87
2021/06/15 05:12:44;;;;;;;;;12.00;10.67;;;;;21.70;51.43;101640.78;5119166;27;44887;-86
2021/06/15 05:15:12;;;;;;;;;12.00;11.33;;;;;21.62;51.51;101625.72;5099752;27;47614;-89
2021/06/15 05:17:46;;;;;;;;;11.00;10.00;;;;;21.64;51.51;101639.06;5094505;27;45404;-87
2021/06/15 05:20:12;;;;;;;;;13.00;11.00;;;;;21.57;51.25;101627.59;5089148;27;45279;-87
2021/06/15 05:22:45;;;;;;;;;11.33;11.00;;;;;21.56;51.24;101625.81;5093392;27;45361;-88
2021/06/15 05:25:14;;;;;;;;;11.67;11.67;;;;;21.68;51.55;101653.31;5084641;27;46316;-88
2021/06/15 05:27:40;;;;;;;;;13.00;12.00;;;;;21.72;51.23;101661.25;5082015;27;45354;-87
2021/06/15 05:30:06;;;;;;;;;11.33;10.33;;;;;21.69;51.03;101653.28;5083557;27;45287;-87
2021/06/15 05:32:32;;;;;;;;;15.67;13.00;;;;;21.70;51.30;101654.16;5081568;27;45472;-88
2021/06/15 05:34:58;;;;;;;;;13.33;12.67;;;;;21.66;50.79;101647.94;5061940;28;47770;-88
2021/06/15 05:37:24;;;;;;;;;11.67;10.33;;;;;21.67;50.94;101665.78;5078898;27;45413;-87
2021/06/15 05:39:50;;;;;;;;;12.67;11.33;;;;;21.68;50.82;101653.31;5080548;27;45204;-89
2021/06/15 05:42:16;;;;;;;;;13.67;11.33;;;;;21.62;51.01;101644.44;5079580;27;45429;-88
2021/06/15 05:44:42;;;;;;;;;11.33;11.33;;;;;21.64;51.11;101647.09;5081025;27;45520;-88
2021/06/15 05:47:08;;;;;;;;;15.00;12.00;;;;;21.69;50.74;101663.09;5096704;27;45574;-88
2021/06/15 05:49:34;;;;;;;;;13.00;11.00;;;;;21.63;50.77;101653.38;5080950;27;45378;-88
2021/06/15 05:52:03;;;;;;;;;14.67;13.00;;;;;21.61;50.63;101649.81;5079260;28;45502;-88
2021/06/15 05:54:30;;;;;;;;;14.67;12.33;;;;;21.56;50.41;101644.53;5079574;28;48304;-88
2021/06/15 05:56:56;;;;;;;;;12.33;11.33;;;;;21.67;50.86;101672.94;5079893;27;45543;-89
2021/06/15 05:59:21;;;;;;;;;16.33;11.00;;;;;21.63;50.62;101670.31;5079727;28;45402;-88
2021/06/15 06:01:47;;;;;;;;;17.00;13.00;;;;;21.49;50.27;101640.19;5079885;27;45577;-88
2021/06/15 06:04:14;;;;;;;;;10.67;10.67;;;;;21.57;50.35;101657.03;5083281;27;47333;-87
2021/06/15 06:09:23;;;;;;;;;14.33;11.67;;;;;21.63;49.97;101664.97;5082834;28;45475;-88
2021/06/15 06:11:49;;;;;;;;;13.00;10.00;;;;;21.62;50.32;101659.59;5079172;28;45292;-88
2021/06/15 06:14:15;;;;;;;;;13.00;11.00;;;;;21.67;50.50;101675.59;5078577;28;48002;-88
2021/06/15 06:16:42;;;;;;;;;11.67;11.33;;;;;21.65;50.21;101662.25;5080199;27;45341;-88
2021/06/15 06:19:09;;;;;;;;;12.00;11.67;;;;;21.61;50.19;101645.38;5078061;27;45336;-88
2021/06/15 06:21:36;;;;;;;;;14.00;12.33;;;;;21.66;50.16;101652.44;5078432;27;45438;-88
2021/06/15 06:24:03;;;;;;;;;12.00;11.00;;;;;21.66;49.97;101647.09;5078106;28;47154;-88
2021/06/15 06:26:29;;;;;;;;;12.33;12.00;;;;;21.63;50.14;101635.53;5077815;28;45563;-89
2021/06/15 06:28:55;;;;;;;;;11.67;10.33;;;;;21.62;50.33;101641.78;5078208;27;45380;-89
2021/06/15 06:31:21;;;;;;;;;10.00;10.00;;;;;21.72;50.99;101660.38;5078489;27;45322;-89
2021/06/15 06:33:46;;;;;;;;;12.33;12.33;;;;;21.62;51.23;101643.56;5079344;27;45332;-88
2021/06/15 06:36:12;;;;;;;;;13.67;13.00;;;;;21.72;50.95;101658.56;5078037;27;45280;-88
2021/06/15 06:38:37;;;;;;;;;13.33;12.00;;;;;21.65;51.07;101643.53;5078751;28;45330;-88
2021/06/15 06:41:03;;;;;;;;;15.00;12.33;;;;;21.58;51.46;101632.03;5079758;28;45217;-90
2021/06/15 06:43:29;;;;;;;;;10.00;10.00;;;;;21.65;51.82;101646.19;5079255;27;45905;-88
2021/06/15 06:45:57;;;;;;;;;12.67;12.00;;;;;21.74;51.71;101659.44;5077614;27;46157;-89
2021/06/15 06:48:22;;;;;;;;;15.00;12.33;;;;;21.69;52.25;101649.72;5079753;27;45447;-88
2021/06/15 06:50:48;;;;;;;;;10.33;10.33;;;;;21.63;51.50;101632.84;5080191;27;45239;-88
2021/06/15 06:53:14;;;;;;;;;16.67;11.67;;;;;21.75;51.67;101653.19;5079900;27;45465;-90
2021/06/15 06:55:39;;;;;;;;;12.67;11.33;;;;;21.64;52.09;101631.94;5079827;27;45318;-89
2021/06/15 06:58:05;;;;;;;;;11.33;11.33;;;;;21.67;51.71;101632.78;5078293;28;45315;-88
2021/06/15 07:00:32;;;;;;;;;11.00;11.00;;;;;21.74;50.84;101646.03;5078568;28;45357;-90
2021/06/15 07:02:57;;;;;;;;;14.00;12.33;;;;;21.75;51.29;101641.59;5079205;27;46078;-88
2021/06/15 07:05:23;;;;;;;;;13.33;12.00;;;;;21.89;51.46;101660.16;5078621;27;45309;-89
2021/06/15 07:07:51;;;;;;;;;13.33;12.33;;;;;21.78;51.14;101640.66;5078131;28;45347;-89
2021/06/15 07:10:16;;;;;;;;;13.00;12.00;;;;;21.89;51.51;101656.59;5077874;27;45523;-90
2021/06/15 07:12:42;;;;;;;;;12.00;10.00;;;;;21.89;51.94;101648.56;5077527;27;47123;-89
2021/06/15 07:15:08;;;;;;;;;12.00;12.00;;;;;21.93;51.84;101644.94;5079176;27;45355;-89
2021/06/15 07:17:34;;;;;;;;;13.00;12.00;;;;;21.86;51.71;101644.13;5077953;28;45431;-89
2021/06/15 07:19:59;;;;;;;;;12.00;12.00;;;;;21.98;52.51;101653.75;5077498;27;45386;-89
2021/06/15 07:22:25;;;;;;;;;14.00;14.00;;;;;21.95;51.77;101652.03;5079168;28;46066;-88
2021/06/15 07:24:50;;;;;;;;;13.00;11.33;;;;;21.98;51.12;101648.41;5079396;27;45417;-87
2021/06/15 07:27:15;;;;;;;;;15.00;11.67;;;;;22.06;52.19;101649.16;5080053;27;45194;-88
2021/06/15 07:29:41;;;;;;;;;17.33;14.00;;;;;22.05;51.75;101646.53;5076741;27;45349;-90
2021/06/15 07:32:06;;;;;;;;;18.67;14.67;;;;;22.23;51.81;101663.19;5078980;27;46321;-88
2021/06/15 07:34:32;;;;;;;;;13.67;12.67;;;;;22.24;52.05;101659.59;5077671;27;45339;-88
2021/06/15 07:36:57;;;;;;;;;15.00;13.00;;;;;22.23;51.53;101650.66;5079227;27;45941;-90
2021/06/15 07:39:23;;;;;;;;;15.33;12.00;;;;;22.29;51.23;101658.59;5077619;28;45276;-88
2021/06/15 07:41:48;;;;;;;;;14.00;13.00;;;;;22.25;51.15;101640.81;5077347;28;48242;-88
2021/06/15 07:44:14;;;;;;;;;15.00;13.00;;;;;22.23;51.22;101626.56;5078518;27;45745;-87
2021/06/15 07:46:39;;;;;;;;;17.33;15.00;;;;;22.35;51.50;101640.66;5079044;28;45311;-88
2021/06/15 07:49:05;;;;;;;;;14.67;13.33;;;;;22.46;51.83;101644.06;5079363;28;45318;-88
2021/06/15 07:51:31;;;;;;;;;14.00;11.00;;;;;22.40;51.77;101628.09;5079855;28;45488;-88
2021/06/15 07:53:56;;;;;;;;;13.67;12.67;;;;;22.49;51.81;101635.94;5078564;28;45904;-89
2021/06/15 07:56:24;;;;;;;;;15.67;13.00;;;;;22.50;51.81;101626.13;5079625;27;45342;-91
2021/06/15 07:58:49;;;;;;;;;17.33;13.67;;;;;22.65;51.91;101643.72;5079587;27;45444;-89
2021/06/15 08:01:14;;;;;;;;;17.33;15.67;;;;;22.66;51.40;101635.66;5079195;27;45441;-90
2021/06/15 08:03:40;;;;;;;;;19.00;13.00;;;;;22.70;51.99;101619.50;5077626;27;45476;-89
2021/06/15 08:06:05;;;;;;;;;14.00;13.00;;;;;22.86;51.90;101634.41;5078888;27;45208;-89
2021/06/15 08:08:31;;;;;;;;;13.67;13.67;;;;;22.90;51.79;101627.16;5078739;28;45362;-89
2021/06/15 08:10:56;;;;;;;;;17.33;15.33;;;;;23.12;51.59;101648.16;5076573;27;47386;-89
2021/06/15 08:13:22;;;;;;;;;16.33;13.67;;;;;23.27;51.86;101646.09;5078117;27;45247;-90
2021/06/15 08:15:49;;;;;;;;;16.67;13.00;;;;;23.42;52.28;101644.84;5078126;27;45345;-88
2021/06/15 08:18:16;;;;;;;;;16.67;15.67;;;;;23.63;51.29;101637.25;5076888;28;45339;-90
2021/06/15 08:20:44;;;;;;;;;16.00;14.00;;;;;23.85;51.29;101640.34;5076460;27;48150;-88
2021/06/15 08:23:10;;;;;;;;;16.00;14.00;;;;;24.00;50.73;101628.34;5077910;28;45389;-89
2021/06/15 08:25:35;;;;;;;;;18.33;15.33;;;;;24.15;50.35;101616.31;5078064;27;45373;-90
2021/06/15 08:28:00;;;;;;;;;19.67;14.33;;;;;24.49;49.64;101643.25;5078411;27;45491;-90
2021/06/15 08:30:26;;;;;;;;;14.00;13.00;;;;;24.58;49.88;101629.53;5077705;27;46237;-89
2021/06/15 08:32:52;;;;;;;;;17.33;14.00;;;;;24.87;48.72;101643.97;5079538;28;45475;-91
2021/06/15 08:35:18;;;;;;;;;14.67;13.00;;;;;24.97;48.66;101625.81;5080231;27;45313;-91
2021/06/15 08:37:44;;;;;;;;;14.33;14.33;;;;;25.17;48.29;101618.06;5082818;27;45501;-90
2021/06/15 08:40:10;;;;;;;;;16.67;16.33;;;;;25.51;47.79;101635.00;5079253;27;46470;-87
2021/06/15 08:42:38;;;;;;;;;12.33;11.67;;;;;25.81;46.88;101639.44;5078512;27;45456;-89
2021/06/15 08:45:06;;;;;;;;;17.67;13.67;;;;;25.98;46.64;101615.53;5076687;27;45339;-90
2021/06/15 08:47:31;;;;;;;;;15.33;14.00;;;;;26.37;46.04;101632.19;5078615;27;45345;-89
2021/06/15 08:49:57;;;;;;;;;18.33;16.67;;;;;26.74;45.30;101629.09;5080118;27;45991;-91
2021/06/15 08:52:26;;;;;;;;;14.33;13.67;;;;;27.14;45.03;101624.94;5081263;28;45870;-91
2021/06/15 08:54:53;;;;;;;;;16.00;14.00;;;;;27.69;44.29;101640.84;5085364;28;45319;-89
2021/06/15 08:57:21;;;;;;;;;18.67;15.33;;;;;28.15;42.98;101623.66;5088380;27;45252;-90
2021/06/15 08:59:47;;;;;;;;;17.00;15.00;;;;;28.67;41.95;101630.41;5089179;28;46487;-89
2021/06/15 09:02:13;;;;;;;;;14.67;14.33;;;;;29.21;41.20;101640.59;5088622;28;45689;-89
2021/06/15 09:04:38;;;;;;;;;18.67;16.00;;;;;29.72;40.22;101643.66;5081527;28;45439;-90
2021/06/15 09:07:04;;;;;;;;;13.00;12.67;;;;;30.25;40.57;101640.97;5080481;27;45313;-88
2021/06/15 09:09:41;;;;;;;;;14.00;12.25;;;;;30.67;39.37;101633.38;5082627;27;45285;-90
2021/06/15 09:12:09;;;;;;;;;18.67;15.33;;;;;31.06;39.72;101625.91;5076263;27;45502;-89
2021/06/15 09:14:48;;;;;;;;;13.33;12.33;;;;;31.54;38.65;101640.47;5076465;28;45339;-91
2021/06/15 09:17:26;;;;;;;;;16.67;15.33;;;;;32.05;37.97;101638.47;5076583;28;45637;-90
2021/06/15 09:19:56;;;;;;;;;16.00;11.67;;;;;32.54;37.26;101622.81;5077157;27;46135;-88
2021/06/15 09:22:33;;;;;;;;;15.67;12.00;;;;;33.46;36.55;101618.88;5077972;27;45368;-91
2021/06/15 09:25:00;;;;;;;;;12.33;11.00;;;;;34.74;33.71;101642.91;5078154;27;45390;-89
2021/06/15 09:27:34;;;;;;;;;14.67;12.67;;;;;35.39;33.14;101641.94;5077744;27;45424;-91
2021/06/15 09:30:03;;;;;;;;;11.67;11.00;;;;;35.58;32.17;101644.16;5075507;28;48846;-89
2021/06/15 09:32:38;;;;;;;;;13.33;11.67;;;;;35.59;32.26;101655.97;5076093;27;45422;-89
2021/06/15 09:35:08;;;;;;;;;14.00;12.33;;;;;35.29;31.28;101646.31;5077009;28;45498;-89
2021/06/15 09:37:47;;;;;;;;;12.67;10.67;;;;;35.18;31.56;101658.91;5078490;28;45259;-90
2021/06/15 09:40:14;;;;;;;;;9.00;9.00;;;;;35.21;31.08;101650.50;5077904;27;46519;-90
2021/06/15 09:43:02;;;;;;;;;13.00;13.00;;;;;35.32;30.53;101657.94;5077222;27;45453;-88
2021/06/15 09:45:41;;;;;;;;;11.33;10.00;;;;;35.41;30.36;101637.22;5076879;27;45388;-90
2021/06/15 09:48:25;;;;;;;;;10.67;9.00;;;;;35.51;30.51;101645.63;5075869;27;45749;-90
2021/06/15 09:50:56;;;;;;;;;10.00;8.33;;;;;35.51;29.98;101640.16;5077182;28;46551;-90
2021/06/15 09:53:27;;;;;;;;;10.00;10.00;;;;;35.60;29.52;101640.47;5080745;27;46167;-91
2021/06/15 09:55:54;;;;;;;;;8.00;8.00;;;;;35.72;29.10;101644.97;5092936;27;45276;-89
2021/06/15 09:58:40;;;;;;;;;7.67;7.67;;;;;35.79;29.40;101638.03;5100708;28;44806;-90
2021/06/15 10:01:06;;;;;;;;;10.00;7.00;;;;;35.86;29.67;101634.84;5104720;27;45423;-90
2021/06/15 10:03:31;;;;;;;;;11.00;11.00;;;;;36.00;28.97;101652.94;5105657;27;44690;-91
2021/06/15 10:05:57;;;;;;;;;11.00;9.00;;;;;36.03;28.83;101649.97;5080466;27;45344;-91
2021/06/15 10:08:41;;;;;;;;;7.00;7.00;;;;;36.08;28.98;101646.88;5081076;27;45346;-91
2021/06/15 10:11:07;;;;;;;;;9.67;9.00;;;;;36.02;28.56;101640.03;5080272;27;46020;-90
2021/06/15 10:13:32;;;;;;;;;10.00;7.67;;;;;35.98;27.98;101627.59;5079960;27;45542;-89
2021/06/15 10:15:58;;;;;;;;;8.67;8.67;;;;;35.95;27.96;101627.81;5080449;27;45322;-90
2021/06/15 10:18:24;;;;;;;;;9.67;9.00;;;;;35.89;28.74;101629.16;5080088;27;45416;-91
2021/06/15 10:20:51;;;;;;;;;7.67;7.67;;;;;35.97;27.73;101644.97;5080043;27;45397;-90
2021/06/15 10:23:16;;;;;;;;;8.00;8.00;;;;;35.89;28.18;101632.78;5078227;28;45981;-90
2021/06/15 10:25:43;;;;;;;;;11.33;9.67;;;;;35.83;28.76;101636.00;5079674;27;45357;-91
2021/06/15 10:28:13;;;;;;;;;9.67;8.67;;;;;35.84;28.43;101636.84;5079962;27;45400;-89
2021/06/15 10:30:40;;;;;;;;;7.33;7.33;;;;;35.85;28.25;101635.88;5079697;27;45300;-89
2021/06/15 10:33:14;;;;;;;;;9.00;7.67;;;;;35.83;28.08;101633.25;5078105;28;46250;-89
2021/06/15 10:35:53;;;;;;;;;3.00;2.00;;;;;35.84;27.75;101634.09;5079838;27;45436;-91
2021/06/15 10:38:42;;;;;;;;;6.67;6.67;;;;;35.69;27.96;101610.53;5080000;27;45387;-91
2021/06/15 10:41:19;;;;;;;;;10.33;8.67;;;;;35.73;27.96;101624.84;5079682;27;45701;-91
2021/06/15 10:43:45;;;;;;;;;10.00;10.00;;;;;35.68;27.34;101621.59;5080965;27;45226;-92
2021/06/15 10:46:11;;;;;;;;;10.67;9.00;;;;;35.72;28.47;101625.84;5082242;27;45387;-89
2021/06/15 10:48:43;;;;;;;;;11.00;8.00;;;;;35.61;27.80;101623.94;5080680;27;45532;-90
2021/06/15 10:51:25;;;;;;;;;8.00;8.00;;;;;35.64;27.43;101618.22;5078865;28;47516;-91
2021/06/15 10:53:53;;;;;;;;;9.67;8.67;;;;;35.61;28.38;101613.00;5080612;28;45731;-92
2021/06/15 10:56:22;;;;;;;;;9.67;8.67;;;;;35.68;27.46;101625.22;5080982;27;45443;-91
2021/06/15 10:58:50;;;;;;;;;11.00;11.00;;;;;35.69;27.70;101626.94;5083626;27;45282;-92
2021/06/15 11:01:27;;;;;;;;;10.00;10.00;;;;;35.55;26.87;101611.59;5087478;27;46171;-91
2021/06/15 11:03:54;;;;;;;;;10.67;10.67;;;;;35.51;27.54;101611.94;5089404;28;45346;-90
2021/06/15 11:06:26;;;;;;;;;13.00;10.33;;;;;35.51;27.53;101615.56;5083794;27;45381;-90
2021/06/15 11:09:16;;;;;;;;;9.67;9.00;;;;;35.47;27.73;101614.91;5079291;27;45554;-93
2021/06/15 11:11:44;;;;;;;;;10.33;9.33;;;;;35.40;27.81;101605.44;5079214;28;45357;-90
2021/06/15 11:14:21;;;;;;;;;7.00;7.00;;;;;35.50;27.70;101607.47;5080186;27;45561;-90
2021/06/15 11:16:51;;;;;;;;;8.67;8.67;;;;;35.50;27.37;101591.06;5088630;28;45259;-89
2021/06/15 11:19:17;;;;;;;;;9.00;9.00;;;;;35.53;26.95;101599.03;5092217;27;45424;-89
2021/06/15 11:21:54;;;;;;;;;10.33;9.33;;;;;35.53;27.94;101597.19;5091592;27;47553;-89
2021/06/15 11:24:26;;;;;;;;;10.33;7.33;;;;;35.59;28.58;101598.56;5091233;27;44760;-90
2021/06/15 11:26:59;;;;;;;;;12.00;9.00;;;;;35.66;28.09;101598.97;5095286;27;45493;-90
2021/06/15 11:29:38;;;;;;;;;7.33;7.33;;;;;35.70;27.69;101589.53;5096943;27;44615;-88